createdAt,value
2019-03-29T00:01:24.358Z,281.51
2019-03-29T00:02:53.902Z,281.46
2019-03-29T00:04:23.264Z,281.46
2019-03-29T00:05:51.983Z,281.43
2019-03-29T00:07:21.103Z,281.38
2019-03-29T00:08:50.863Z,281.36
2019-03-29T00:10:20.287Z,281.32
2019-03-29T00:11:49.901Z,281.3
2019-03-29T00:13:19.823Z,281.29
2019-03-29T00:14:48.543Z,281.28
2019-03-29T00:16:17.343Z,281.28
2019-03-29T00:17:46.062Z,281.31
2019-03-29T00:19:16.702Z,281.3
2019-03-29T00:20:45.506Z,281.28
2019-03-29T00:22:16.226Z,281.26
2019-03-29T00:23:44.952Z,281.28
2019-03-29T00:25:13.665Z,281.26
2019-03-29T00:26:43.264Z,281.23
2019-03-29T00:28:12.389Z,281.19
2019-03-29T00:29:41.190Z,281.19
2019-03-29T00:31:09.984Z,281.18
2019-03-29T00:32:39.825Z,281.2
2019-03-29T00:34:08.544Z,281.19
2019-03-29T00:35:39.426Z,281.17
2019-03-29T00:37:08.305Z,281.16
2019-03-29T00:38:37.109Z,281.19
2019-03-29T00:40:06.298Z,281.25
2019-03-29T00:41:36.783Z,281.31
2019-03-29T00:43:07.348Z,281.35
2019-03-29T00:44:37.905Z,281.37
2019-03-29T00:46:06.629Z,281.36
2019-03-29T00:47:36.309Z,281.31
2019-03-29T00:49:05.024Z,281.29
2019-03-29T00:50:35.963Z,281.26
2019-03-29T00:52:04.706Z,281.22
2019-03-29T00:53:33.422Z,281.22
2019-03-29T00:55:02.145Z,281.21
2019-03-29T00:56:30.862Z,281.19
2019-03-29T00:57:59.581Z,281.16
2019-03-29T00:59:28.380Z,281.09
2019-03-29T01:00:57.106Z,281.04
2019-03-29T01:02:26.223Z,281.01
2019-03-29T01:03:54.944Z,280.98
2019-03-29T01:05:25.911Z,280.99
2019-03-29T01:06:54.702Z,281.03
2019-03-29T01:08:23.501Z,281.1
2019-03-29T01:09:52.223Z,281.13
2019-03-29T01:11:20.942Z,281.16
2019-03-29T01:12:49.745Z,281.17
2019-03-29T01:14:19.341Z,281.17
2019-03-29T01:15:48.947Z,281.16
2019-03-29T01:17:17.660Z,281.14
2019-03-29T01:18:46.462Z,281.12
2019-03-29T01:20:15.277Z,281.12
2019-03-29T01:21:44.862Z,281.09
2019-03-29T01:23:14.464Z,281.06
2019-03-29T01:24:44.941Z,281.04
2019-03-29T01:26:14.555Z,281.03
2019-03-29T01:27:44.226Z,281.09
2019-03-29T01:29:13.829Z,281.11
2019-03-29T01:30:42.624Z,281.07
2019-03-29T01:32:13.112Z,281.06
2019-03-29T01:33:41.830Z,281.01
2019-03-29T01:35:11.438Z,281.02
2019-03-29T01:36:41.984Z,281.05
2019-03-29T01:38:21.017Z,281.05
2019-03-29T01:39:54.784Z,281
2019-03-29T01:41:23.503Z,281.01
2019-03-29T01:42:52.224Z,281.03
2019-03-29T01:44:20.945Z,281
2019-03-29T01:45:51.030Z,280.97
2019-03-29T01:47:19.903Z,280.96
2019-03-29T01:48:49.038Z,280.95
2019-03-29T01:50:18.865Z,280.98
2019-03-29T01:51:49.502Z,280.96
2019-03-29T01:53:18.229Z,280.96
2019-03-29T01:54:46.943Z,280.98
2019-03-29T01:56:15.665Z,281
2019-03-29T01:57:44.388Z,281
2019-03-29T01:59:13.504Z,280.96
2019-03-29T02:00:43.426Z,280.95
2019-03-29T02:02:12.223Z,280.95
2019-03-29T02:03:40.943Z,280.95
2019-03-29T02:05:09.666Z,280.97
2019-03-29T02:06:38.466Z,280.99
2019-03-29T02:08:08.064Z,281.03
2019-03-29T02:09:36.866Z,281
2019-03-29T02:11:05.626Z,280.98
2019-03-29T02:12:34.383Z,280.97
2019-03-29T02:14:03.104Z,280.95
2019-03-29T02:15:31.864Z,280.94
2019-03-29T02:17:01.024Z,280.9
2019-03-29T02:18:29.744Z,280.89
2019-03-29T02:19:58.464Z,280.88
2019-03-29T02:21:27.193Z,280.89
2019-03-29T02:22:55.914Z,280.9
2019-03-29T02:24:26.466Z,280.93
2019-03-29T02:25:55.186Z,280.94
2019-03-29T02:27:23.987Z,280.93
2019-03-29T02:28:53.749Z,280.88
2019-03-29T02:30:22.790Z,280.83
2019-03-29T02:31:51.586Z,280.83
2019-03-29T02:33:20.752Z,280.81
2019-03-29T02:34:50.866Z,280.8
2019-03-29T02:36:22.386Z,280.78
2019-03-29T02:37:52.867Z,280.76
2019-03-29T02:39:21.585Z,280.75
2019-03-29T02:40:50.971Z,280.75
2019-03-29T02:42:20.546Z,280.73
2019-03-29T02:43:49.413Z,280.69
2019-03-29T02:45:18.223Z,280.66
2019-03-29T02:46:47.424Z,280.64
2019-03-29T02:48:16.983Z,280.57
2019-03-29T02:49:46.225Z,280.54
2019-03-29T02:51:15.427Z,280.55
2019-03-29T02:52:44.785Z,280.53
2019-03-29T02:54:13.667Z,280.53
2019-03-29T02:55:43.829Z,280.54
2019-03-29T02:57:12.544Z,280.52
2019-03-29T02:58:41.771Z,280.52
2019-03-29T03:00:10.556Z,280.5
2019-03-29T03:01:39.425Z,280.49
2019-03-29T03:03:08.227Z,280.46
2019-03-29T03:04:37.031Z,280.45
2019-03-29T03:06:05.824Z,280.48
2019-03-29T03:07:35.428Z,280.48
2019-03-29T03:09:18.786Z,280.48
2019-03-29T03:10:48.386Z,280.46
2019-03-29T03:12:18.466Z,280.47
2019-03-29T03:13:47.264Z,280.48
2019-03-29T03:15:15.998Z,280.5
2019-03-29T03:16:44.865Z,280.45
2019-03-29T03:18:13.677Z,280.43
2019-03-29T03:19:42.386Z,280.42
2019-03-29T03:21:13.108Z,280.42
2019-03-29T03:22:42.790Z,280.38
2019-03-29T03:24:12.464Z,280.43
2019-03-29T03:25:41.189Z,280.42
2019-03-29T03:27:10.984Z,280.43
2019-03-29T03:28:40.705Z,280.44
2019-03-29T03:30:09.428Z,280.47
2019-03-29T03:31:38.345Z,280.45
2019-03-29T03:33:07.200Z,280.4
2019-03-29T03:34:37.185Z,280.35
2019-03-29T03:36:06.063Z,280.31
2019-03-29T03:37:37.509Z,280.29
2019-03-29T03:39:06.384Z,280.29
2019-03-29T03:40:35.115Z,280.3
2019-03-29T03:42:05.665Z,280.27
2019-03-29T03:43:34.625Z,280.23
2019-03-29T03:45:04.225Z,280.2
2019-03-29T03:46:33.904Z,280.2
2019-03-29T03:48:03.988Z,280.21
2019-03-29T03:49:33.026Z,280.24
2019-03-29T03:51:01.984Z,280.26
2019-03-29T03:52:30.786Z,280.23
2019-03-29T03:53:59.506Z,280.23
2019-03-29T03:55:28.230Z,280.23
2019-03-29T03:56:56.998Z,280.15
2019-03-29T03:58:26.705Z,280.12
2019-03-29T03:59:56.384Z,280.07
2019-03-29T04:01:25.760Z,280.07
2019-03-29T04:02:54.550Z,280.05
2019-03-29T04:04:24.802Z,280.02
2019-03-29T04:05:53.825Z,279.98
2019-03-29T04:07:22.625Z,279.98
2019-03-29T04:08:52.385Z,279.96
2019-03-29T04:10:22.864Z,279.91
2019-03-29T04:11:52.944Z,279.91
2019-03-29T04:13:21.903Z,279.88
2019-03-29T04:14:51.508Z,279.85
2019-03-29T04:16:20.317Z,279.83
2019-03-29T04:17:49.104Z,279.74
2019-03-29T04:19:17.906Z,279.76
2019-03-29T04:20:46.703Z,279.74
2019-03-29T04:22:15.511Z,279.67
2019-03-29T04:23:44.302Z,279.61
2019-03-29T04:25:13.026Z,279.53
2019-03-29T04:26:41.825Z,279.41
2019-03-29T04:28:10.625Z,279.3
2019-03-29T04:29:39.427Z,279.22
2019-03-29T04:31:08.142Z,279.22
2019-03-29T04:32:36.864Z,279.22
2019-03-29T04:34:05.960Z,279.15
2019-03-29T04:35:35.102Z,279.07
2019-03-29T04:37:03.833Z,279.05
2019-03-29T04:38:33.504Z,279.02
2019-03-29T04:40:13.025Z,278.94
2019-03-29T04:41:42.710Z,278.85
2019-03-29T04:43:11.428Z,278.81
2019-03-29T04:44:40.147Z,278.75
2019-03-29T04:46:09.826Z,278.72
2019-03-29T04:47:38.710Z,278.66
2019-03-29T04:49:07.584Z,278.59
2019-03-29T04:50:36.385Z,278.55
2019-03-29T04:52:06.788Z,278.55
2019-03-29T04:53:36.065Z,278.53
2019-03-29T04:55:05.666Z,278.44
2019-03-29T04:56:34.387Z,278.37
2019-03-29T04:58:03.324Z,278.3
2019-03-29T04:59:32.945Z,278.25
2019-03-29T05:01:01.681Z,278.18
2019-03-29T05:02:30.466Z,278.11
2019-03-29T05:03:59.263Z,278.1
2019-03-29T05:05:29.023Z,278.09
2019-03-29T05:06:58.623Z,278.01
2019-03-29T05:08:27.345Z,277.94
2019-03-29T05:09:56.145Z,277.91
2019-03-29T05:11:25.744Z,277.88
2019-03-29T05:12:55.343Z,277.83
2019-03-29T05:14:24.065Z,277.78
2019-03-29T05:15:53.828Z,277.73
2019-03-29T05:17:23.508Z,277.74
2019-03-29T05:18:52.304Z,277.71
2019-03-29T05:20:22.785Z,277.7
2019-03-29T05:21:51.503Z,277.69
2019-03-29T05:23:20.222Z,277.68
2019-03-29T05:24:49.026Z,277.65
2019-03-29T05:26:18.704Z,277.61
2019-03-29T05:27:47.423Z,277.61
2019-03-29T05:29:16.144Z,277.62
2019-03-29T05:30:45.024Z,277.6
2019-03-29T05:32:14.867Z,277.57
2019-03-29T05:33:46.224Z,277.51
2019-03-29T05:35:14.950Z,277.51
2019-03-29T05:36:43.742Z,277.54
2019-03-29T05:38:12.475Z,277.54
2019-03-29T05:39:41.264Z,277.49
2019-03-29T05:41:10.944Z,277.46
2019-03-29T05:42:39.665Z,277.44
2019-03-29T05:44:08.384Z,277.47
2019-03-29T05:45:37.103Z,277.54
2019-03-29T05:47:05.825Z,277.55
2019-03-29T05:48:34.628Z,277.53
2019-03-29T05:50:04.303Z,277.51
2019-03-29T05:51:33.024Z,277.5
2019-03-29T05:53:03.506Z,277.48
2019-03-29T05:54:32.625Z,277.45
2019-03-29T05:56:02.225Z,277.46
2019-03-29T05:57:32.167Z,277.46
2019-03-29T05:59:01.667Z,277.45
2019-03-29T06:00:30.546Z,277.47
2019-03-29T06:01:59.275Z,277.49
2019-03-29T06:03:27.983Z,277.51
2019-03-29T06:04:56.706Z,277.55
2019-03-29T06:06:25.422Z,277.59
2019-03-29T06:07:54.144Z,277.66
2019-03-29T06:09:23.746Z,277.72
2019-03-29T06:10:54.546Z,277.79
2019-03-29T06:12:23.346Z,277.87
2019-03-29T06:13:52.066Z,277.92
2019-03-29T06:15:20.868Z,278.02
2019-03-29T06:16:50.547Z,278.16
2019-03-29T06:18:19.272Z,278.28
2019-03-29T06:19:49.030Z,278.31
2019-03-29T06:21:17.748Z,278.34
2019-03-29T06:22:46.468Z,278.38
2019-03-29T06:24:15.186Z,278.41
2019-03-29T06:25:43.911Z,278.47
2019-03-29T06:27:12.785Z,278.52
2019-03-29T06:28:41.586Z,278.59
2019-03-29T06:30:10.309Z,278.7
2019-03-29T06:31:39.112Z,278.85
2019-03-29T06:33:07.826Z,278.82
2019-03-29T06:34:36.549Z,278.8
2019-03-29T06:36:06.224Z,278.84
2019-03-29T06:37:35.825Z,278.89
2019-03-29T06:39:05.509Z,278.99
2019-03-29T06:40:35.113Z,279.05
2019-03-29T06:42:03.828Z,279.07
2019-03-29T06:43:33.426Z,279.14
2019-03-29T06:45:02.227Z,279.21
2019-03-29T06:46:30.947Z,279.27
2019-03-29T06:47:59.669Z,279.33
2019-03-29T06:49:28.469Z,279.41
2019-03-29T06:50:57.345Z,279.49
2019-03-29T06:52:26.069Z,279.57
2019-03-29T06:53:57.589Z,279.7
2019-03-29T06:55:26.475Z,279.83
2019-03-29T06:56:56.867Z,279.96
2019-03-29T06:58:25.753Z,280.1
2019-03-29T06:59:54.626Z,280.16
2019-03-29T07:01:24.466Z,280.15
2019-03-29T07:02:53.352Z,280.14
2019-03-29T07:04:22.147Z,280.25
2019-03-29T07:05:50.871Z,280.31
2019-03-29T07:07:20.630Z,280.37
2019-03-29T07:08:51.264Z,280.45
2019-03-29T07:10:20.148Z,280.46
2019-03-29T07:11:48.865Z,280.45
2019-03-29T07:13:20.226Z,280.5
2019-03-29T07:14:50.063Z,280.56
2019-03-29T07:16:18.794Z,280.62
2019-03-29T07:17:47.662Z,280.66
2019-03-29T07:19:17.265Z,280.79
2019-03-29T07:20:46.147Z,281.01
2019-03-29T07:22:15.822Z,281.16
2019-03-29T07:23:44.543Z,281.21
2019-03-29T07:25:13.345Z,281.17
2019-03-29T07:26:42.061Z,281.14
2019-03-29T07:28:10.800Z,281.12
2019-03-29T07:29:40.957Z,281.2
2019-03-29T07:31:11.425Z,281.38
2019-03-29T07:32:41.910Z,281.44
2019-03-29T07:34:11.513Z,281.47
2019-03-29T07:35:40.303Z,281.56
2019-03-29T07:37:11.024Z,281.75
2019-03-29T07:38:40.304Z,281.84
2019-03-29T07:40:09.118Z,281.97
2019-03-29T07:41:39.187Z,282.06
2019-03-29T07:43:09.673Z,282.17
2019-03-29T07:44:38.946Z,282.14
2019-03-29T07:46:07.670Z,282.13
2019-03-29T07:47:36.514Z,282.23
2019-03-29T07:49:05.349Z,282.29
2019-03-29T07:50:34.156Z,282.32
2019-03-29T07:52:02.945Z,282.42
2019-03-29T07:53:32.309Z,282.55
2019-03-29T07:55:01.028Z,282.72
2019-03-29T07:56:30.708Z,282.76
2019-03-29T07:57:59.424Z,282.75
2019-03-29T07:59:28.549Z,282.77
2019-03-29T08:00:57.509Z,282.73
2019-03-29T08:02:26.309Z,282.67
2019-03-29T08:03:58.306Z,282.68
2019-03-29T08:05:27.025Z,282.72
2019-03-29T08:06:56.636Z,282.83
2019-03-29T08:08:32.796Z,282.94
2019-03-29T08:10:04.560Z,283.03
2019-03-29T08:11:45.436Z,283.1
2019-03-29T08:13:16.648Z,283.16
2019-03-29T08:14:45.508Z,283.25
2019-03-29T08:16:14.230Z,283.32
2019-03-29T08:17:43.277Z,283.3
2019-03-29T08:19:12.066Z,283.28
2019-03-29T08:20:48.305Z,283.3
2019-03-29T08:22:17.039Z,283.37
2019-03-29T08:23:45.906Z,283.39
2019-03-29T08:25:14.698Z,283.39
2019-03-29T08:26:43.988Z,283.4
2019-03-29T08:28:12.715Z,283.41
2019-03-29T08:29:41.586Z,283.39
2019-03-29T08:31:11.270Z,283.38
2019-03-29T08:32:39.984Z,283.43
2019-03-29T08:34:08.786Z,283.42
2019-03-29T08:35:37.514Z,283.43
2019-03-29T08:37:08.873Z,283.46
2019-03-29T08:38:37.593Z,283.49
2019-03-29T08:40:07.350Z,283.53
2019-03-29T08:41:37.828Z,283.53
2019-03-29T08:43:06.635Z,283.55
2019-03-29T08:44:35.424Z,283.59
2019-03-29T08:46:04.626Z,283.67
2019-03-29T08:47:34.740Z,283.73
2019-03-29T08:49:03.585Z,283.81
2019-03-29T08:50:32.389Z,283.91
2019-03-29T08:52:02.875Z,284.01
2019-03-29T08:53:32.706Z,284.08
2019-03-29T08:55:01.511Z,284.05
2019-03-29T08:56:30.394Z,284.08
2019-03-29T08:58:00.069Z,284.12
2019-03-29T08:59:28.879Z,284.12
2019-03-29T09:00:57.762Z,284.1
2019-03-29T09:02:30.077Z,284.13
2019-03-29T09:04:09.985Z,284.15
2019-03-29T09:05:39.234Z,284.17
2019-03-29T09:07:09.191Z,284.23
2019-03-29T09:08:38.872Z,284.32
2019-03-29T09:10:09.448Z,284.4
2019-03-29T09:11:43.756Z,284.47
2019-03-29T09:13:12.555Z,284.53
2019-03-29T09:14:41.346Z,284.6
2019-03-29T09:16:10.066Z,284.68
2019-03-29T09:17:38.786Z,284.76
2019-03-29T09:19:07.517Z,284.83
2019-03-29T09:20:39.508Z,284.92
2019-03-29T09:22:08.229Z,284.98
2019-03-29T09:23:37.028Z,285.05
2019-03-29T09:25:05.829Z,285.13
2019-03-29T09:26:34.624Z,285.2
2019-03-29T09:28:03.346Z,285.23
2019-03-29T09:29:32.069Z,285.22
2019-03-29T09:31:01.670Z,285.23
2019-03-29T09:32:30.632Z,285.25
2019-03-29T09:33:59.511Z,285.32
2019-03-29T09:35:28.315Z,285.39
2019-03-29T09:37:00.007Z,285.43
2019-03-29T09:38:30.067Z,285.51
2019-03-29T09:39:58.787Z,285.59
2019-03-29T09:41:28.393Z,285.61
2019-03-29T09:43:11.187Z,285.67
2019-03-29T09:44:39.911Z,285.7
2019-03-29T09:46:09.039Z,285.68
2019-03-29T09:47:44.921Z,285.78
2019-03-29T09:49:14.551Z,285.81
2019-03-29T09:50:50.658Z,285.89
2019-03-29T17:48:23.252Z,284.63
2019-03-29T17:49:30.452Z,284.39
2019-03-29T17:50:51.411Z,284.24
2019-03-29T17:52:21.093Z,284.18
2019-03-29T17:53:49.813Z,284.11
2019-03-29T17:55:19.413Z,283.99
2019-03-29T17:56:49.971Z,283.88
2019-03-29T17:58:19.579Z,283.72
2019-03-29T17:59:48.452Z,283.66
2019-03-29T18:01:18.291Z,283.59
2019-03-29T18:02:47.134Z,283.47
2019-03-29T18:04:16.050Z,283.4
2019-03-29T18:05:44.850Z,283.34
2019-03-29T18:07:13.575Z,283.23
2019-03-29T18:08:42.295Z,283.15
2019-03-29T18:10:13.663Z,283.05
2019-03-29T18:11:42.456Z,283.04
2019-03-29T18:13:11.273Z,283.02
2019-03-29T18:14:40.306Z,282.96
2019-03-29T18:16:09.200Z,282.91
2019-03-29T18:17:38.622Z,282.82
2019-03-29T18:19:07.342Z,282.74
2019-03-29T18:20:36.146Z,282.59
2019-03-29T18:22:04.861Z,282.47
2019-03-29T18:23:33.579Z,282.36
2019-03-29T18:25:02.539Z,282.31
2019-03-29T18:26:31.260Z,282.24
2019-03-29T18:28:00.539Z,282.17
2019-03-29T18:29:29.741Z,282.09
2019-03-29T18:30:58.779Z,282.03
2019-03-29T18:32:27.501Z,281.99
2019-03-29T18:33:56.222Z,282
2019-03-29T18:35:25.901Z,282
2019-03-29T18:36:56.136Z,281.96
2019-03-29T18:38:25.749Z,281.93
2019-03-29T18:39:55.019Z,281.87
2019-03-29T18:41:24.146Z,281.83
2019-03-29T18:42:52.941Z,281.77
2019-03-29T18:44:21.663Z,281.7
2019-03-29T18:45:52.142Z,281.61
2019-03-29T18:47:21.584Z,281.56
2019-03-29T18:48:51.182Z,281.51
2019-03-29T18:50:20.065Z,281.49
2019-03-29T18:51:49.822Z,281.62
2019-03-29T18:53:19.261Z,281.68
2019-03-29T18:54:48.144Z,281.63
2019-03-29T18:56:17.587Z,281.56
2019-03-29T18:57:47.264Z,281.45
2019-03-29T18:59:15.983Z,281.34
2019-03-29T19:00:45.026Z,281.21
2019-03-29T19:02:13.823Z,281.12
2019-03-29T19:03:42.622Z,281.03
2019-03-29T19:05:11.344Z,281.02
2019-03-29T19:06:40.146Z,280.97
2019-03-29T19:08:08.952Z,280.9
2019-03-29T19:09:37.663Z,280.82
2019-03-29T19:11:06.462Z,280.77
2019-03-29T19:12:35.185Z,280.69
2019-03-29T19:14:04.861Z,280.63
2019-03-29T19:15:33.829Z,280.67
2019-03-29T19:17:04.622Z,280.64
2019-03-29T19:18:33.344Z,280.61
2019-03-29T19:20:02.074Z,280.6
2019-03-29T19:21:31.910Z,280.5
2019-03-29T19:23:00.705Z,280.46
2019-03-29T19:24:29.587Z,280.36
2019-03-29T19:25:58.387Z,280.24
2019-03-29T19:27:27.507Z,280.14
2019-03-29T19:28:56.307Z,280.05
2019-03-29T19:30:25.188Z,279.98
2019-03-29T19:31:56.188Z,279.95
2019-03-29T19:33:25.115Z,279.95
2019-03-29T19:34:53.824Z,279.98
2019-03-29T19:36:22.627Z,280.04
2019-03-29T19:37:52.311Z,280.07
2019-03-29T19:39:21.030Z,279.97
2019-03-29T19:40:49.825Z,279.87
2019-03-29T19:42:21.826Z,279.82
2019-03-29T19:43:50.546Z,279.76
2019-03-29T19:45:19.507Z,279.74
2019-03-29T19:46:48.787Z,279.77
2019-03-29T19:48:17.509Z,279.7
2019-03-29T19:49:46.230Z,279.64
2019-03-29T19:51:14.950Z,279.58
2019-03-29T19:52:43.668Z,279.55
2019-03-29T19:54:13.045Z,279.54
2019-03-29T19:55:42.865Z,279.47
2019-03-29T19:57:12.803Z,279.41
2019-03-29T19:58:41.698Z,279.32
2019-03-29T20:00:11.367Z,279.24
2019-03-29T20:01:40.314Z,279.2
2019-03-29T20:03:09.194Z,279.21
2019-03-29T20:04:38.070Z,279.26
2019-03-29T20:06:06.791Z,279.19
2019-03-29T20:07:37.270Z,279.15
2019-03-29T20:09:06.391Z,279.19
2019-03-29T20:10:35.349Z,279.12
2019-03-29T20:12:04.953Z,279.06
2019-03-29T20:13:33.670Z,279.06
2019-03-29T20:15:04.313Z,279.08
2019-03-29T20:16:33.033Z,279.1
2019-03-29T20:18:01.830Z,279.09
2019-03-29T20:19:30.631Z,278.99
2019-03-29T20:21:00.231Z,278.89
2019-03-29T20:22:30.875Z,278.82
2019-03-29T20:24:00.629Z,278.77
2019-03-29T20:25:29.351Z,278.72
2019-03-29T20:26:58.070Z,278.67
2019-03-29T20:28:26.873Z,278.6
2019-03-29T20:29:56.473Z,278.54
2019-03-29T20:31:25.272Z,278.52
2019-03-29T20:32:53.992Z,278.54
2019-03-29T20:34:22.794Z,278.46
2019-03-29T20:35:51.509Z,278.45
2019-03-29T20:37:20.230Z,278.45
2019-03-29T20:38:49.352Z,278.36
2019-03-29T20:40:18.077Z,278.32
2019-03-29T20:41:46.885Z,278.26
2019-03-29T20:43:15.672Z,278.24
2019-03-29T20:44:44.395Z,278.2
2019-03-29T20:46:13.116Z,278.16
2019-03-29T20:47:50.980Z,278.16
2019-03-29T20:49:21.833Z,278.11
2019-03-29T20:50:50.549Z,278.09
2019-03-29T20:52:19.352Z,278.09
2019-03-29T20:53:48.879Z,278.07
2019-03-29T20:55:17.670Z,277.98
2019-03-29T20:56:47.392Z,277.91
2019-03-29T20:58:16.150Z,277.87
2019-03-29T20:59:44.874Z,277.88
2019-03-29T21:01:14.468Z,277.84
2019-03-29T21:02:43.189Z,277.78
2019-03-29T21:04:13.345Z,277.72
2019-03-29T21:05:42.147Z,277.69
2019-03-29T21:07:10.868Z,277.67
2019-03-29T21:08:39.911Z,277.69
2019-03-29T21:10:08.624Z,277.62
2019-03-29T21:11:38.464Z,277.55
2019-03-29T21:13:07.393Z,277.46
2019-03-29T21:14:37.192Z,277.41
2019-03-29T21:16:06.788Z,277.42
2019-03-29T21:17:35.514Z,277.4
2019-03-29T21:19:04.304Z,277.38
2019-03-29T21:20:33.072Z,277.42
2019-03-29T21:22:01.822Z,277.4
2019-03-29T21:23:31.586Z,277.36
2019-03-29T21:25:00.456Z,277.32
2019-03-29T21:26:29.268Z,277.37
2019-03-29T21:27:58.543Z,277.39
2019-03-29T21:29:28.144Z,277.39
2019-03-29T21:30:56.863Z,277.36
2019-03-29T21:32:25.666Z,277.35
2019-03-29T21:33:55.264Z,277.29
2019-03-29T21:35:24.884Z,277.27
2019-03-29T21:36:53.666Z,277.28
2019-03-29T21:38:22.386Z,277.19
2019-03-29T21:39:51.103Z,277.19
2019-03-29T21:41:19.823Z,277.17
2019-03-29T21:42:48.548Z,277.16
2019-03-29T21:44:21.667Z,277.08
2019-03-29T21:45:50.710Z,277.09
2019-03-29T21:47:19.832Z,277.07
2019-03-29T21:48:48.703Z,277.03
2019-03-29T21:50:17.665Z,276.97
2019-03-29T21:51:48.383Z,276.96
2019-03-29T21:53:17.184Z,276.96
2019-03-29T21:54:45.908Z,276.91
2019-03-29T21:56:15.997Z,276.82
2019-03-29T21:57:44.786Z,276.73
2019-03-29T21:59:13.515Z,276.71
2019-03-29T22:00:42.783Z,276.73
2019-03-29T22:02:13.905Z,276.7
2019-03-29T22:03:42.708Z,276.62
2019-03-29T22:05:15.185Z,276.55
2019-03-29T22:06:45.186Z,276.55
2019-03-29T22:08:17.808Z,276.53
2019-03-29T22:09:47.425Z,276.44
2019-03-29T22:11:16.146Z,276.42
2019-03-29T22:12:48.230Z,276.37
2019-03-29T22:14:17.667Z,276.33
2019-03-29T22:15:47.172Z,276.32
2019-03-29T22:17:15.988Z,276.32
2019-03-29T22:18:44.707Z,276.28
2019-03-29T22:20:13.438Z,276.23
2019-03-29T22:21:42.232Z,276.25
2019-03-29T22:23:10.951Z,276.26
2019-03-29T22:24:39.989Z,276.23
2019-03-29T22:26:09.587Z,276.19
2019-03-29T22:27:38.307Z,276.14
2019-03-29T22:29:07.191Z,276.12
2019-03-29T22:30:36.228Z,276.1
2019-03-29T22:32:05.027Z,276.08
2019-03-29T22:33:34.625Z,276.09
2019-03-29T22:35:03.346Z,276.08
2019-03-29T22:36:32.072Z,276.07
2019-03-29T22:38:03.270Z,276.1
2019-03-29T22:39:32.066Z,276.05
2019-03-29T22:41:00.785Z,276.06
2019-03-29T22:42:29.784Z,276.02
2019-03-29T22:43:59.426Z,275.98
2019-03-29T22:45:28.146Z,275.94
2019-03-29T22:46:57.585Z,275.91
2019-03-29T22:48:26.943Z,275.88
2019-03-29T22:49:55.662Z,275.88
2019-03-29T22:51:24.381Z,275.85
2019-03-29T22:52:55.744Z,275.84
2019-03-29T22:54:25.346Z,275.87
2019-03-29T22:55:54.941Z,275.87
2019-03-29T22:57:23.662Z,275.84
2019-03-29T22:58:52.542Z,275.84
2019-03-29T23:00:21.260Z,275.84
2019-03-29T23:01:49.979Z,275.83
2019-03-29T23:03:18.942Z,275.87
2019-03-29T23:04:47.743Z,275.9
2019-03-29T23:06:16.620Z,275.87
2019-03-29T23:07:45.342Z,275.82
2019-03-29T23:09:17.099Z,275.8
2019-03-29T23:10:46.701Z,275.76
2019-03-29T23:12:15.982Z,275.7
2019-03-29T23:13:45.585Z,275.68
2019-03-29T23:15:14.304Z,275.67
2019-03-29T23:16:43.025Z,275.63
2019-03-29T23:18:11.750Z,275.59
2019-03-29T23:19:40.617Z,275.61
2019-03-29T23:21:09.983Z,275.55
2019-03-29T23:22:38.947Z,275.54
2019-03-29T23:24:08.546Z,275.6
2019-03-29T23:25:38.145Z,275.57
2019-03-29T23:27:07.758Z,275.48
2019-03-29T23:28:36.554Z,275.43
2019-03-29T23:30:05.345Z,275.41
2019-03-29T23:31:34.071Z,275.45
2019-03-29T23:33:03.028Z,275.46
2019-03-29T23:34:32.702Z,275.38
2019-03-29T23:36:01.428Z,275.35
2019-03-29T23:37:30.144Z,275.44
2019-03-29T23:38:59.746Z,275.41
2019-03-29T23:40:28.463Z,275.36
2019-03-29T23:41:58.543Z,275.33
2019-03-29T23:43:27.266Z,275.27
2019-03-29T23:44:56.065Z,275.22
2019-03-29T23:46:24.863Z,275.25
2019-03-29T23:47:53.586Z,275.24
2019-03-29T23:49:26.467Z,275.22
2019-03-29T23:50:55.272Z,275.15
2019-03-29T23:52:24.084Z,275.14
2019-03-29T23:53:53.026Z,275.09
2019-03-29T23:55:21.833Z,275.12
2019-03-29T23:56:50.548Z,275.1
2019-03-29T23:58:19.272Z,275.12
2019-03-29T23:59:48.063Z,275.06
